Time,TemperatureF,DewpointF,PressureIn,WindDirection,WindDirectionDegrees,WindSpeedMPH,WindSpeedGustMPH,Humidity,HourlyPrecipIn,Conditions,Clouds,dailyrainin,SolarRadiationWatts/m^2,SoftwareType,DateUTC
2013-08-27 00:10:00,66.5,62.8,23.17,WNW,294,0.0,0.0,88,0.00,,,0.00,0,Wunderground v.1.15,2013-08-27 04:10:00,
2013-08-27 00:20:00,66.0,62.7,23.17,WNW,294,0.0,0.0,89,0.00,,,0.00,0,Wunderground v.1.15,2013-08-27 04:20:00,
2013-08-27 00:30:00,66.0,63.0,23.17,WNW,294,0.0,0.0,90,0.00,,,0.00,0,Wunderground v.1.15,2013-08-27 04:30:00,
2013-08-27 00:40:00,65.9,63.2,23.17,WNW,294,0.0,0.0,91,0.00,,,0.00,0,Wunderground v.1.15,2013-08-27 04:40:00,
2013-08-27 00:50:00,65.9,63.2,23.17,WNW,294,0.0,0.0,91,0.00,,,0.00,0,Wunderground v.1.15,2013-08-27 04:50:00,
2013-08-27 01:10:00,66.0,63.3,23.17,WNW,294,0.0,0.0,91,0.00,,,0.00,0,Wunderground v.1.15,2013-08-27 05:10:00,
2013-08-27 01:20:00,66.2,63.8,23.17,WNW,294,0.0,0.0,92,0.00,,,0.00,0,Wunderground v.1.15,2013-08-27 05:20:00,
2013-08-27 01:30:00,66.2,63.8,23.17,WNW,294,0.0,0.0,92,0.00,,,0.00,0,Wunderground v.1.15,2013-08-27 05:30:00,
2013-08-27 01:40:00,66.2,63.5,23.17,WNW,294,0.0,0.0,91,0.00,,,0.00,0,Wunderground v.1.15,2013-08-27 05:40:00,
2013-08-27 01:50:00,66.3,63.6,23.17,WNW,294,0.0,0.0,91,0.00,,,0.00,0,Wunderground v.1.15,2013-08-27 05:50:00,
2013-08-27 02:10:00,66.3,63.6,23.17,WNW,294,0.0,0.0,91,0.00,,,0.00,0,Wunderground v.1.15,2013-08-27 06:10:00,
2013-08-27 02:20:00,66.2,63.5,23.17,WNW,294,0.0,0.0,91,0.00,,,0.00,0,Wunderground v.1.15,2013-08-27 06:20:00,
2013-08-27 02:30:00,66.0,63.3,23.17,WNW,294,0.0,0.0,91,0.00,,,0.00,0,Wunderground v.1.15,2013-08-27 06:30:00,
2013-08-27 02:40:00,66.0,63.3,23.17,WNW,294,0.0,0.0,91,0.00,,,0.00,0,Wunderground v.1.15,2013-08-27 06:40:00,
2013-08-27 02:50:00,66.0,63.3,23.17,WNW,294,0.0,0.0,91,0.00,,,0.00,0,Wunderground v.1.15,2013-08-27 06:50:00,
2013-08-27 03:10:00,65.5,63.1,23.17,WNW,294,0.0,0.0,92,0.00,,,0.00,0,Wunderground v.1.15,2013-08-27 07:10:00,
2013-08-27 03:20:00,65.4,63.0,23.17,WNW,294,0.0,0.0,92,0.00,,,0.00,0,Wunderground v.1.15,2013-08-27 07:20:00,
2013-08-27 03:31:00,65.2,62.8,23.17,WNW,294,0.0,0.0,92,0.00,,,0.00,0,Wunderground v.1.15,2013-08-27 07:31:00,
2013-08-27 03:40:00,65.1,62.7,23.17,WNW,294,0.0,0.0,92,0.00,,,0.00,0,Wunderground v.1.15,2013-08-27 07:40:00,
2013-08-27 03:50:00,65.1,62.7,23.17,WNW,294,0.0,0.0,92,0.00,,,0.00,0,Wunderground v.1.15,2013-08-27 07:50:00,
2013-08-27 04:00:00,64.9,62.5,23.17,WNW,294,0.0,0.0,92,0.00,,,0.00,0,Wunderground v.1.15,2013-08-27 08:00:00,
2013-08-27 04:10:00,64.9,62.8,23.17,WNW,294,0.0,0.0,93,0.00,,,0.00,0,Wunderground v.1.15,2013-08-27 08:10:00,
2013-08-27 04:20:00,64.4,62.0,23.17,WNW,294,0.0,0.0,92,0.00,,,0.00,0,Wunderground v.1.15,2013-08-27 08:20:00,
2013-08-27 04:40:00,63.6,61.5,23.17,WNW,294,0.0,0.0,93,0.00,,,0.00,0,Wunderground v.1.15,2013-08-27 08:40:00,
2013-08-27 04:50:00,63.4,61.3,23.17,WNW,294,0.0,0.0,93,0.00,,,0.00,0,Wunderground v.1.15,2013-08-27 08:50:00,
2013-08-27 05:10:00,63.3,61.2,23.17,WNW,294,0.0,0.0,93,0.00,,,0.00,0,Wunderground v.1.15,2013-08-27 09:10:00,
2013-08-27 05:20:00,63.0,60.9,23.17,WNW,294,0.0,0.0,93,0.00,,,0.00,0,Wunderground v.1.15,2013-08-27 09:20:00,
2013-08-27 05:31:00,62.5,60.4,23.17,WNW,294,0.0,0.0,93,0.00,,,0.00,0,Wunderground v.1.15,2013-08-27 09:31:00,
2013-08-27 05:40:00,61.7,59.7,23.17,WNW,294,0.0,0.0,93,0.00,,,0.00,0,Wunderground v.1.15,2013-08-27 09:40:00,
2013-08-27 05:50:00,61.5,59.5,23.17,WNW,294,0.0,0.0,93,0.00,,,0.00,0,Wunderground v.1.15,2013-08-27 09:50:00,
2013-08-27 06:10:00,61.5,59.5,23.17,WNW,294,0.0,0.0,93,0.00,,,0.00,0,Wunderground v.1.15,2013-08-27 10:10:00,
2013-08-27 06:20:00,61.9,59.9,23.17,WNW,294,0.0,0.0,93,0.00,,,0.00,9,Wunderground v.1.15,2013-08-27 10:20:00,
2013-08-27 06:30:00,61.7,59.7,23.17,WNW,294,0.0,0.0,93,0.00,,,0.00,18,Wunderground v.1.15,2013-08-27 10:30:00,
2013-08-27 06:40:00,61.7,59.7,23.18,WNW,294,0.0,0.0,93,0.00,,,0.00,25,Wunderground v.1.15,2013-08-27 10:40:00,
2013-08-27 06:50:00,62.3,60.6,23.18,WNW,294,0.0,0.0,94,0.00,,,0.00,32,Wunderground v.1.15,2013-08-27 10:50:00,
2013-08-27 07:10:00,63.3,61.5,23.18,WNW,294,0.0,0.0,94,0.00,,,0.00,46,Wunderground v.1.15,2013-08-27 11:10:00,
2013-08-27 07:20:00,63.6,61.8,23.18,WNW,294,0.0,0.0,94,0.00,,,0.00,51,Wunderground v.1.15,2013-08-27 11:20:00,
2013-08-27 07:40:00,64.9,63.1,23.18,WNW,294,0.0,0.0,94,0.00,,,0.00,100,Wunderground v.1.15,2013-08-27 11:40:00,
2013-08-27 07:50:00,65.5,63.4,23.18,WNW,294,0.0,0.0,93,0.00,,,0.00,72,Wunderground v.1.15,2013-08-27 11:50:00,
2013-08-27 08:00:00,65.9,63.8,23.18,WNW,294,0.0,0.0,93,0.00,,,0.00,111,Wunderground v.1.15,2013-08-27 12:00:00,
2013-08-27 08:10:00,66.5,64.1,23.18,WNW,294,0.0,0.0,92,0.00,,,0.00,128,Wunderground v.1.15,2013-08-27 12:10:00,
2013-08-27 08:20:00,67.0,64.3,23.18,WNW,294,0.0,0.0,91,0.00,,,0.00,109,Wunderground v.1.15,2013-08-27 12:20:00,
2013-08-27 08:40:00,68.0,64.0,23.18,WNW,294,0.0,0.0,87,0.00,,,0.00,139,Wunderground v.1.15,2013-08-27 12:40:00,
2013-08-27 08:50:00,68.5,64.1,23.18,WNW,294,0.0,0.0,86,0.00,,,0.00,209,Wunderground v.1.15,2013-08-27 12:50:00,
2013-08-27 09:00:00,69.5,64.5,23.18,WNW,294,0.0,1.0,84,0.00,,,0.00,199,Wunderground v.1.15,2013-08-27 13:00:00,
2013-08-27 09:10:00,69.8,64.1,23.18,WNW,294,0.0,0.0,82,0.00,,,0.00,244,Wunderground v.1.15,2013-08-27 13:10:00,
2013-08-27 09:20:00,70.7,64.6,23.18,WNW,294,0.0,0.0,81,0.00,,,0.00,320,Wunderground v.1.15,2013-08-27 13:20:00,
2013-08-27 09:40:00,72.2,64.6,23.18,WNW,294,0.0,0.0,77,0.00,,,0.00,373,Wunderground v.1.15,2013-08-27 13:40:00,
2013-08-27 09:50:00,73.1,65.1,23.18,WNW,296,0.0,0.0,76,0.00,,,0.00,496,Wunderground v.1.15,2013-08-27 13:50:00,
2013-08-27 10:00:00,73.9,64.3,23.18,WNW,295,0.0,0.0,72,0.00,,,0.00,568,Wunderground v.1.15,2013-08-27 14:00:00,
2013-08-27 10:10:00,74.6,64.2,23.18,WNW,295,0.0,0.0,70,0.00,,,0.00,343,Wunderground v.1.15,2013-08-27 14:10:00,
2013-08-27 10:20:00,74.6,64.2,23.18,WNW,295,0.0,0.0,70,0.00,,,0.00,329,Wunderground v.1.15,2013-08-27 14:20:00,
2013-08-27 10:40:00,75.0,65.0,23.18,WNW,296,0.0,0.0,71,0.00,,,0.00,232,Wunderground v.1.15,2013-08-27 14:40:00,
2013-08-27 10:50:00,74.8,64.8,23.18,WNW,296,0.0,0.0,71,0.00,,,0.00,174,Wunderground v.1.15,2013-08-27 14:50:00,
2013-08-27 11:01:00,74.5,64.9,23.18,WNW,296,0.0,0.0,72,0.00,,,0.00,299,Wunderground v.1.15,2013-08-27 15:01:00,
2013-08-27 11:10:00,74.3,64.7,23.18,WNW,292,0.0,0.0,72,0.00,,,0.00,246,Wunderground v.1.15,2013-08-27 15:10:00,
2013-08-27 11:20:00,74.5,64.9,23.18,WNW,292,0.0,0.0,72,0.00,,,0.00,369,Wunderground v.1.15,2013-08-27 15:20:00,
2013-08-27 11:30:00,74.5,64.9,23.18,WNW,292,0.0,0.0,72,0.00,,,0.00,401,Wunderground v.1.15,2013-08-27 15:30:00,
2013-08-27 11:40:00,75.0,65.0,23.18,WNW,293,0.0,0.0,71,0.00,,,0.00,390,Wunderground v.1.15,2013-08-27 15:40:00,
2013-08-27 11:50:00,75.2,65.1,23.18,WNW,291,0.0,0.0,71,0.00,,,0.00,278,Wunderground v.1.15,2013-08-27 15:50:00,
2013-08-27 12:10:00,74.1,64.5,23.18,West,268,0.0,0.0,72,0.00,,,0.00,146,Wunderground v.1.15,2013-08-27 16:10:00,
2013-08-27 12:20:00,74.1,64.9,23.18,West,265,0.0,0.0,73,0.00,,,0.00,223,Wunderground v.1.15,2013-08-27 16:20:00,
2013-08-27 12:40:00,74.5,64.9,23.18,West,265,0.0,0.0,72,0.00,,,0.00,306,Wunderground v.1.15,2013-08-27 16:40:00,
2013-08-27 12:50:00,74.5,64.9,23.18,West,276,0.0,0.0,72,0.00,,,0.00,330,Wunderground v.1.15,2013-08-27 16:50:00,
2013-08-27 13:10:00,74.8,65.2,23.18,West,273,0.0,0.0,72,0.00,,,0.00,274,Wunderground v.1.15,2013-08-27 17:10:00,
2013-08-27 13:20:00,75.0,65.0,23.18,West,268,0.0,0.0,71,0.00,,,0.00,376,Wunderground v.1.15,2013-08-27 17:20:00,
2013-08-27 13:50:00,76.0,65.1,23.18,WSW,249,0.0,0.0,69,0.00,,,0.00,371,Wunderground v.1.15,2013-08-27 17:50:00,
2013-08-27 14:10:00,76.2,64.4,23.18,SSW,202,0.0,0.0,67,0.00,,,0.00,489,Wunderground v.1.15,2013-08-27 18:10:00,
2013-08-27 14:20:00,77.1,65.3,23.18,SW,219,0.0,0.0,67,0.00,,,0.00,410,Wunderground v.1.15,2013-08-27 18:20:00,
2013-08-27 14:40:00,77.5,64.8,23.18,SW,223,0.0,0.0,65,0.00,,,0.00,410,Wunderground v.1.15,2013-08-27 18:40:00,
2013-08-27 14:50:00,77.5,64.8,23.18,South,175,0.0,0.0,65,0.00,,,0.00,826,Wunderground v.1.15,2013-08-27 18:50:00,
2013-08-27 15:10:00,78.5,65.3,23.18,South,186,0.0,0.0,64,0.00,,,0.00,740,Wunderground v.1.15,2013-08-27 19:10:00,
2013-08-27 15:20:00,78.0,65.7,23.17,South,178,0.0,0.0,66,0.00,,,0.00,478,Wunderground v.1.15,2013-08-27 19:20:00,
2013-08-27 15:40:00,78.0,65.3,23.17,South,178,0.0,0.0,65,0.00,,,0.00,366,Wunderground v.1.15,2013-08-27 19:40:00,
2013-08-27 15:50:00,77.6,64.9,23.17,South,174,0.0,0.0,65,0.00,,,0.00,536,Wunderground v.1.15,2013-08-27 19:50:00,
2013-08-27 16:10:00,79.7,65.5,23.17,South,184,0.0,1.0,62,0.00,,,0.00,287,Wunderground v.1.15,2013-08-27 20:10:00,
2013-08-27 16:20:00,78.5,65.8,23.17,SSE,167,0.0,0.0,65,0.00,,,0.00,200,Wunderground v.1.15,2013-08-27 20:20:00,
2013-08-27 16:40:00,79.1,65.4,23.17,SSW,213,0.0,0.0,63,0.00,,,0.00,557,Wunderground v.1.15,2013-08-27 20:40:00,
2013-08-27 16:50:00,80.0,65.8,23.17,SW,219,0.0,0.0,62,0.00,,,0.00,311,Wunderground v.1.15,2013-08-27 20:50:00,
2013-08-27 17:10:00,80.0,66.3,23.17,SSW,194,0.0,0.0,63,0.00,,,0.00,439,Wunderground v.1.15,2013-08-27 21:10:00,
2013-08-27 17:20:00,80.0,66.3,23.17,SSW,192,0.0,0.0,63,0.00,,,0.00,432,Wunderground v.1.15,2013-08-27 21:20:00,
2013-08-27 17:50:00,80.0,66.3,23.17,SSW,194,0.0,0.0,63,0.00,,,0.00,353,Wunderground v.1.15,2013-08-27 21:50:00,
2013-08-27 18:10:00,79.1,65.9,23.17,SW,225,0.0,0.0,64,0.00,,,0.00,241,Wunderground v.1.15,2013-08-27 22:10:00,
2013-08-27 18:20:00,78.7,65.9,23.17,SW,225,0.0,0.0,65,0.00,,,0.00,151,Wunderground v.1.15,2013-08-27 22:20:00,
2013-08-27 18:40:00,78.9,66.6,23.17,WSW,252,0.0,0.0,66,0.00,,,0.00,169,Wunderground v.1.15,2013-08-27 22:40:00,
2013-08-27 18:50:00,78.7,66.4,23.17,SW,214,0.0,0.0,66,0.00,,,0.00,107,Wunderground v.1.15,2013-08-27 22:50:00,
2013-08-27 19:10:00,78.0,67.0,23.17,West,269,0.0,0.0,69,0.00,,,0.00,63,Wunderground v.1.15,2013-08-27 23:10:00,
2013-08-27 19:20:00,77.5,66.9,23.17,West,269,0.0,0.0,70,0.00,,,0.00,33,Wunderground v.1.15,2013-08-27 23:20:00,
2013-08-27 19:31:00,76.9,67.2,23.17,West,270,0.0,0.0,72,0.00,,,0.00,18,Wunderground v.1.15,2013-08-27 23:31:00,
2013-08-27 19:40:00,76.6,67.3,23.17,West,270,0.0,0.0,73,0.00,,,0.00,7,Wunderground v.1.15,2013-08-27 23:40:00,
2013-08-27 19:50:00,76.2,67.3,23.17,West,270,0.0,0.0,74,0.00,,,0.00,0,Wunderground v.1.15,2013-08-27 23:50:00,
2013-08-27 20:10:00,75.0,67.3,23.17,West,273,0.0,0.0,77,0.00,,,0.00,0,Wunderground v.1.15,2013-08-28 00:10:00,
2013-08-27 20:20:00,74.8,67.5,23.17,West,273,0.0,0.0,78,0.00,,,0.00,0,Wunderground v.1.15,2013-08-28 00:20:00,
2013-08-27 20:40:00,74.5,67.9,23.17,West,273,0.0,0.0,80,0.00,,,0.00,0,Wunderground v.1.15,2013-08-28 00:40:00,
2013-08-27 20:50:00,73.8,68.0,23.17,West,273,0.0,0.0,82,0.00,,,0.00,0,Wunderground v.1.15,2013-08-28 00:50:00,
2013-08-27 21:10:00,72.4,67.6,23.17,West,273,0.0,0.0,85,0.00,,,0.00,0,Wunderground v.1.15,2013-08-28 01:10:00,
2013-08-27 21:40:00,71.2,67.5,23.17,West,273,0.0,0.0,88,0.00,,,0.00,0,Wunderground v.1.15,2013-08-28 01:40:00,
2013-08-27 21:50:00,71.2,67.5,23.17,West,273,0.0,0.0,88,0.00,,,0.00,0,Wunderground v.1.15,2013-08-28 01:50:00,
2013-08-27 22:10:00,71.4,67.0,23.17,West,273,0.0,0.0,86,0.00,,,0.00,0,Wunderground v.1.15,2013-08-28 02:10:00,
2013-08-27 22:20:00,71.4,67.0,23.17,West,273,0.0,0.0,86,0.00,,,0.00,0,Wunderground v.1.15,2013-08-28 02:20:00,
2013-08-27 22:40:00,71.0,66.9,23.18,West,273,0.0,0.0,87,0.00,,,0.00,0,Wunderground v.1.15,2013-08-28 02:40:00,
2013-08-27 22:50:00,70.7,66.6,23.18,West,273,0.0,0.0,87,0.00,,,0.00,0,Wunderground v.1.15,2013-08-28 02:50:00,
2013-08-27 23:10:00,69.3,65.6,23.18,West,273,0.0,0.0,88,0.00,,,0.00,0,Wunderground v.1.15,2013-08-28 03:10:00,
2013-08-27 23:20:00,69.0,65.6,23.17,West,273,0.0,0.0,89,0.00,,,0.00,0,Wunderground v.1.15,2013-08-28 03:20:00,
2013-08-27 23:40:00,68.5,65.4,23.17,West,273,0.0,0.0,90,0.00,,,0.00,0,Wunderground v.1.15,2013-08-28 03:40:00,
2013-08-27 23:50:00,68.5,65.8,23.17,West,273,0.0,0.0,91,0.00,,,0.00,0,Wunderground v.1.15,2013-08-28 03:50:00,